sensor_id;sensor_type;location;lat;lon;timestamp;P1;durP1;ratioP1;P2;durP2;ratioP2
27893;SDS011;15240;50.812;4.792;2022-09-01T00:01:17;6.03;;;3.13;;
27893;SDS011;15240;50.812;4.792;2022-09-01T00:03:48;8.70;;;3.17;;
27893;SDS011;15240;50.812;4.792;2022-09-01T00:06:17;5.57;;;3.40;;
27893;SDS011;15240;50.812;4.792;2022-09-01T00:08:47;9.47;;;3.53;;
27893;SDS011;15240;50.812;4.792;2022-09-01T00:11:13;6.80;;;2.90;;
27893;SDS011;15240;50.812;4.792;2022-09-01T00:13:40;5.47;;;2.83;;
27893;SDS011;15240;50.812;4.792;2022-09-01T00:16:06;5.07;;;2.70;;
27893;SDS011;15240;50.812;4.792;2022-09-01T00:18:32;3.97;;;2.80;;
27893;SDS011;15240;50.812;4.792;2022-09-01T00:21:00;4.37;;;2.83;;
27893;SDS011;15240;50.812;4.792;2022-09-01T00:23:26;6.73;;;2.73;;
27893;SDS011;15240;50.812;4.792;2022-09-01T00:25:53;10.73;;;3.20;;
27893;SDS011;15240;50.812;4.792;2022-09-01T00:28:19;4.50;;;2.53;;
27893;SDS011;15240;50.812;4.792;2022-09-01T00:30:46;6.20;;;2.60;;
27893;SDS011;15240;50.812;4.792;2022-09-01T00:33:12;5.57;;;3.00;;
27893;SDS011;15240;50.812;4.792;2022-09-01T00:35:38;7.03;;;2.80;;
27893;SDS011;15240;50.812;4.792;2022-09-01T00:38:04;6.63;;;2.80;;
27893;SDS011;15240;50.812;4.792;2022-09-01T00:40:30;4.47;;;3.00;;
27893;SDS011;15240;50.812;4.792;2022-09-01T00:42:56;7.00;;;3.07;;
27893;SDS011;15240;50.812;4.792;2022-09-01T00:45:22;8.60;;;3.33;;
27893;SDS011;15240;50.812;4.792;2022-09-01T00:47:48;5.80;;;3.10;;
27893;SDS011;15240;50.812;4.792;2022-09-01T00:50:15;5.03;;;3.13;;
27893;SDS011;15240;50.812;4.792;2022-09-01T00:52:47;5.47;;;3.20;;
27893;SDS011;15240;50.812;4.792;2022-09-01T00:55:16;7.60;;;3.23;;
27893;SDS011;15240;50.812;4.792;2022-09-01T00:57:43;6.50;;;2.90;;
27893;SDS011;15240;50.812;4.792;2022-09-01T01:00:18;7.03;;;3.10;;
27893;SDS011;15240;50.812;4.792;2022-09-01T01:02:44;9.13;;;3.60;;
27893;SDS011;15240;50.812;4.792;2022-09-01T01:05:11;7.00;;;3.50;;
27893;SDS011;15240;50.812;4.792;2022-09-01T01:07:37;6.20;;;3.23;;
27893;SDS011;15240;50.812;4.792;2022-09-01T01:10:07;7.83;;;3.50;;
27893;SDS011;15240;50.812;4.792;2022-09-01T01:12:35;9.13;;;3.30;;
27893;SDS011;15240;50.812;4.792;2022-09-01T01:15:04;5.17;;;3.70;;
27893;SDS011;15240;50.812;4.792;2022-09-01T01:17:31;7.27;;;3.33;;
27893;SDS011;15240;50.812;4.792;2022-09-01T01:19:57;9.23;;;3.73;;
27893;SDS011;15240;50.812;4.792;2022-09-01T01:25:27;6.87;;;3.97;;
27893;SDS011;15240;50.812;4.792;2022-09-01T01:28:02;5.33;;;3.30;;
27893;SDS011;15240;50.812;4.792;2022-09-01T01:30:28;8.00;;;3.33;;
27893;SDS011;15240;50.812;4.792;2022-09-01T01:33:01;8.23;;;3.57;;
27893;SDS011;15240;50.812;4.792;2022-09-01T01:35:27;8.23;;;3.70;;
27893;SDS011;15240;50.812;4.792;2022-09-01T01:37:53;7.70;;;4.10;;
27893;SDS011;15240;50.812;4.792;2022-09-01T01:40:20;6.37;;;3.87;;
27893;SDS011;15240;50.812;4.792;2022-09-01T01:42:50;5.93;;;3.40;;
27893;SDS011;15240;50.812;4.792;2022-09-01T01:45:18;8.50;;;5.00;;
27893;SDS011;15240;50.812;4.792;2022-09-01T01:47:48;6.17;;;4.07;;
27893;SDS011;15240;50.812;4.792;2022-09-01T01:50:21;7.93;;;3.70;;
27893;SDS011;15240;50.812;4.792;2022-09-01T01:52:48;13.60;;;3.87;;
27893;SDS011;15240;50.812;4.792;2022-09-01T01:55:14;8.73;;;3.77;;
27893;SDS011;15240;50.812;4.792;2022-09-01T01:57:43;9.00;;;3.90;;
27893;SDS011;15240;50.812;4.792;2022-09-01T02:00:13;7.17;;;3.60;;
27893;SDS011;15240;50.812;4.792;2022-09-01T02:02:43;7.40;;;4.13;;
27893;SDS011;15240;50.812;4.792;2022-09-01T02:05:12;5.87;;;4.13;;
27893;SDS011;15240;50.812;4.792;2022-09-01T02:07:44;7.63;;;4.13;;
27893;SDS011;15240;50.812;4.792;2022-09-01T02:10:11;6.20;;;3.57;;
27893;SDS011;15240;50.812;4.792;2022-09-01T02:12:37;8.03;;;4.07;;
27893;SDS011;15240;50.812;4.792;2022-09-01T02:15:04;7.73;;;4.27;;
27893;SDS011;15240;50.812;4.792;2022-09-01T02:17:31;6.90;;;4.27;;
27893;SDS011;15240;50.812;4.792;2022-09-01T02:19:57;9.70;;;3.97;;
27893;SDS011;15240;50.812;4.792;2022-09-01T02:22:23;8.53;;;4.40;;
27893;SDS011;15240;50.812;4.792;2022-09-01T02:24:49;8.83;;;4.50;;
27893;SDS011;15240;50.812;4.792;2022-09-01T02:27:16;8.67;;;4.50;;
27893;SDS011;15240;50.812;4.792;2022-09-01T02:29:47;7.70;;;4.60;;
27893;SDS011;15240;50.812;4.792;2022-09-01T02:32:17;8.73;;;4.07;;
27893;SDS011;15240;50.812;4.792;2022-09-01T02:34:46;7.80;;;4.07;;
27893;SDS011;15240;50.812;4.792;2022-09-01T02:37:17;9.90;;;4.83;;
27893;SDS011;15240;50.812;4.792;2022-09-01T02:39:50;7.43;;;4.53;;
27893;SDS011;15240;50.812;4.792;2022-09-01T02:42:17;10.07;;;4.73;;
27893;SDS011;15240;50.812;4.792;2022-09-01T02:44:48;11.10;;;4.50;;
27893;SDS011;15240;50.812;4.792;2022-09-01T02:47:14;9.67;;;4.30;;
27893;SDS011;15240;50.812;4.792;2022-09-01T02:49:40;6.40;;;4.03;;
27893;SDS011;15240;50.812;4.792;2022-09-01T02:52:06;7.43;;;4.13;;
27893;SDS011;15240;50.812;4.792;2022-09-01T02:54:32;7.80;;;4.00;;
27893;SDS011;15240;50.812;4.792;2022-09-01T02:56:59;6.60;;;4.10;;
27893;SDS011;15240;50.812;4.792;2022-09-01T02:59:26;7.87;;;3.73;;
27893;SDS011;15240;50.812;4.792;2022-09-01T03:01:53;7.27;;;4.23;;
27893;SDS011;15240;50.812;4.792;2022-09-01T03:04:21;8.50;;;3.90;;
27893;SDS011;15240;50.812;4.792;2022-09-01T03:06:47;7.60;;;4.00;;
27893;SDS011;15240;50.812;4.792;2022-09-01T03:09:17;6.50;;;3.87;;
27893;SDS011;15240;50.812;4.792;2022-09-01T03:11:45;7.40;;;4.10;;
27893;SDS011;15240;50.812;4.792;2022-09-01T03:14:11;8.03;;;4.00;;
27893;SDS011;15240;50.812;4.792;2022-09-01T03:16:38;8.30;;;3.87;;
27893;SDS011;15240;50.812;4.792;2022-09-01T03:19:05;9.93;;;4.17;;
27893;SDS011;15240;50.812;4.792;2022-09-01T03:21:33;7.33;;;4.20;;
27893;SDS011;15240;50.812;4.792;2022-09-01T03:24:00;9.67;;;4.10;;
27893;SDS011;15240;50.812;4.792;2022-09-01T03:26:28;10.87;;;4.70;;
27893;SDS011;15240;50.812;4.792;2022-09-01T03:28:54;7.20;;;4.37;;
27893;SDS011;15240;50.812;4.792;2022-09-01T03:31:20;9.83;;;4.40;;
27893;SDS011;15240;50.812;4.792;2022-09-01T03:33:46;9.87;;;4.30;;
27893;SDS011;15240;50.812;4.792;2022-09-01T03:36:12;8.00;;;4.10;;
27893;SDS011;15240;50.812;4.792;2022-09-01T03:38:43;7.70;;;4.27;;
27893;SDS011;15240;50.812;4.792;2022-09-01T03:41:12;6.70;;;4.20;;
27893;SDS011;15240;50.812;4.792;2022-09-01T03:43:38;9.57;;;4.70;;
27893;SDS011;15240;50.812;4.792;2022-09-01T03:46:04;8.17;;;4.00;;
27893;SDS011;15240;50.812;4.792;2022-09-01T03:48:30;9.33;;;4.23;;
27893;SDS011;15240;50.812;4.792;2022-09-01T03:50:57;10.00;;;4.43;;
27893;SDS011;15240;50.812;4.792;2022-09-01T03:53:26;9.53;;;4.30;;
27893;SDS011;15240;50.812;4.792;2022-09-01T03:55:53;6.70;;;4.20;;
27893;SDS011;15240;50.812;4.792;2022-09-01T03:58:21;8.50;;;4.67;;
27893;SDS011;15240;50.812;4.792;2022-09-01T04:00:52;7.83;;;4.60;;
27893;SDS011;15240;50.812;4.792;2022-09-01T04:03:19;7.83;;;4.10;;
27893;SDS011;15240;50.812;4.792;2022-09-01T04:05:47;7.60;;;4.30;;
27893;SDS011;15240;50.812;4.792;2022-09-01T04:08:13;8.30;;;4.90;;
27893;SDS011;15240;50.812;4.792;2022-09-01T04:10:47;7.53;;;4.50;;
27893;SDS011;15240;50.812;4.792;2022-09-01T04:13:21;7.67;;;4.70;;
27893;SDS011;15240;50.812;4.792;2022-09-01T04:15:48;8.60;;;4.60;;
27893;SDS011;15240;50.812;4.792;2022-09-01T04:18:14;11.70;;;4.37;;
27893;SDS011;15240;50.812;4.792;2022-09-01T04:20:57;9.30;;;4.43;;
27893;SDS011;15240;50.812;4.792;2022-09-01T04:23:24;10.40;;;4.27;;
27893;SDS011;15240;50.812;4.792;2022-09-01T04:25:54;7.20;;;4.73;;
27893;SDS011;15240;50.812;4.792;2022-09-01T04:28:22;7.90;;;4.37;;
27893;SDS011;15240;50.812;4.792;2022-09-01T04:30:49;6.67;;;4.40;;
27893;SDS011;15240;50.812;4.792;2022-09-01T04:33:15;8.23;;;4.60;;
27893;SDS011;15240;50.812;4.792;2022-09-01T04:35:47;7.90;;;4.20;;
27893;SDS011;15240;50.812;4.792;2022-09-01T04:38:15;7.70;;;4.13;;
27893;SDS011;15240;50.812;4.792;2022-09-01T04:40:42;6.90;;;4.13;;
27893;SDS011;15240;50.812;4.792;2022-09-01T04:43:08;6.57;;;4.23;;
27893;SDS011;15240;50.812;4.792;2022-09-01T04:45:34;9.23;;;4.50;;
27893;SDS011;15240;50.812;4.792;2022-09-01T04:48:01;7.67;;;4.47;;
27893;SDS011;15240;50.812;4.792;2022-09-01T04:50:27;7.20;;;4.47;;
27893;SDS011;15240;50.812;4.792;2022-09-01T04:52:56;6.93;;;4.10;;
27893;SDS011;15240;50.812;4.792;2022-09-01T04:55:24;8.73;;;4.43;;
27893;SDS011;15240;50.812;4.792;2022-09-01T04:57:53;6.83;;;4.30;;
27893;SDS011;15240;50.812;4.792;2022-09-01T05:00:22;8.13;;;4.60;;
27893;SDS011;15240;50.812;4.792;2022-09-01T05:02:55;8.67;;;4.67;;
27893;SDS011;15240;50.812;4.792;2022-09-01T05:05:28;6.70;;;4.50;;
27893;SDS011;15240;50.812;4.792;2022-09-01T05:07:55;9.43;;;4.43;;
27893;SDS011;15240;50.812;4.792;2022-09-01T05:10:22;8.30;;;4.40;;
27893;SDS011;15240;50.812;4.792;2022-09-01T05:12:53;11.10;;;4.30;;
27893;SDS011;15240;50.812;4.792;2022-09-01T05:15:21;7.97;;;4.60;;
27893;SDS011;15240;50.812;4.792;2022-09-01T05:17:47;7.20;;;4.20;;
27893;SDS011;15240;50.812;4.792;2022-09-01T05:20:13;7.60;;;4.60;;
27893;SDS011;15240;50.812;4.792;2022-09-01T05:22:40;6.50;;;4.30;;
27893;SDS011;15240;50.812;4.792;2022-09-01T05:25:07;6.17;;;3.93;;
27893;SDS011;15240;50.812;4.792;2022-09-01T05:27:38;6.33;;;4.50;;
27893;SDS011;15240;50.812;4.792;2022-09-01T05:30:04;10.47;;;4.63;;
27893;SDS011;15240;50.812;4.792;2022-09-01T05:32:33;7.63;;;4.50;;
27893;SDS011;15240;50.812;4.792;2022-09-01T05:35:01;7.87;;;4.37;;
27893;SDS011;15240;50.812;4.792;2022-09-01T05:37:30;7.90;;;4.33;;
27893;SDS011;15240;50.812;4.792;2022-09-01T05:39:56;8.03;;;4.53;;
27893;SDS011;15240;50.812;4.792;2022-09-01T05:42:22;7.47;;;4.50;;
27893;SDS011;15240;50.812;4.792;2022-09-01T05:44:48;8.10;;;4.30;;
27893;SDS011;15240;50.812;4.792;2022-09-01T05:47:14;7.37;;;4.17;;
27893;SDS011;15240;50.812;4.792;2022-09-01T05:49:40;10.30;;;4.47;;
27893;SDS011;15240;50.812;4.792;2022-09-01T05:52:06;7.00;;;4.53;;
27893;SDS011;15240;50.812;4.792;2022-09-01T05:54:34;8.07;;;4.30;;
27893;SDS011;15240;50.812;4.792;2022-09-01T05:57:00;9.70;;;4.50;;
27893;SDS011;15240;50.812;4.792;2022-09-01T05:59:27;7.00;;;4.57;;
27893;SDS011;15240;50.812;4.792;2022-09-01T06:01:57;7.10;;;4.63;;
27893;SDS011;15240;50.812;4.792;2022-09-01T06:04:23;9.90;;;4.23;;
27893;SDS011;15240;50.812;4.792;2022-09-01T06:06:49;5.83;;;4.30;;
27893;SDS011;15240;50.812;4.792;2022-09-01T06:09:17;6.50;;;4.33;;
27893;SDS011;15240;50.812;4.792;2022-09-01T06:11:45;7.73;;;4.13;;
27893;SDS011;15240;50.812;4.792;2022-09-01T06:14:14;9.47;;;4.23;;
27893;SDS011;15240;50.812;4.792;2022-09-01T06:16:42;7.13;;;4.30;;
27893;SDS011;15240;50.812;4.792;2022-09-01T06:19:08;7.67;;;4.00;;
27893;SDS011;15240;50.812;4.792;2022-09-01T06:21:37;7.77;;;4.43;;
27893;SDS011;15240;50.812;4.792;2022-09-01T06:24:03;8.10;;;4.13;;
27893;SDS011;15240;50.812;4.792;2022-09-01T06:26:31;5.77;;;4.10;;
27893;SDS011;15240;50.812;4.792;2022-09-01T06:28:59;8.37;;;4.70;;
27893;SDS011;15240;50.812;4.792;2022-09-01T06:31:31;6.87;;;4.40;;
27893;SDS011;15240;50.812;4.792;2022-09-01T06:34:03;5.17;;;4.30;;
27893;SDS011;15240;50.812;4.792;2022-09-01T06:36:29;6.43;;;4.32;;
27893;SDS011;15240;50.812;4.792;2022-09-01T06:38:58;7.32;;;4.13;;
27893;SDS011;15240;50.812;4.792;2022-09-01T06:41:25;7.15;;;4.70;;
27893;SDS011;15240;50.812;4.792;2022-09-01T06:43:52;8.05;;;4.68;;
27893;SDS011;15240;50.812;4.792;2022-09-01T06:46:19;7.05;;;4.80;;
27893;SDS011;15240;50.812;4.792;2022-09-01T06:48:46;9.38;;;4.88;;
27893;SDS011;15240;50.812;4.792;2022-09-01T06:51:16;11.05;;;5.25;;
27893;SDS011;15240;50.812;4.792;2022-09-01T06:53:43;8.02;;;5.47;;
27893;SDS011;15240;50.812;4.792;2022-09-01T06:56:10;8.45;;;5.40;;
27893;SDS011;15240;50.812;4.792;2022-09-01T06:58:41;9.57;;;5.47;;
27893;SDS011;15240;50.812;4.792;2022-09-01T07:01:12;7.07;;;5.28;;
27893;SDS011;15240;50.812;4.792;2022-09-01T07:03:39;7.43;;;4.97;;
27893;SDS011;15240;50.812;4.792;2022-09-01T07:06:06;6.93;;;5.40;;
27893;SDS011;15240;50.812;4.792;2022-09-01T07:08:33;10.80;;;5.70;;
27893;SDS011;15240;50.812;4.792;2022-09-01T07:11:03;8.52;;;5.03;;
27893;SDS011;15240;50.812;4.792;2022-09-01T07:13:31;9.80;;;5.30;;
27893;SDS011;15240;50.812;4.792;2022-09-01T07:15:59;9.52;;;5.00;;
27893;SDS011;15240;50.812;4.792;2022-09-01T07:18:25;6.22;;;4.88;;
27893;SDS011;15240;50.812;4.792;2022-09-01T07:20:53;9.60;;;4.90;;
27893;SDS011;15240;50.812;4.792;2022-09-01T07:23:19;9.13;;;4.97;;
27893;SDS011;15240;50.812;4.792;2022-09-01T07:25:46;6.53;;;5.18;;
27893;SDS011;15240;50.812;4.792;2022-09-01T07:28:13;9.23;;;4.57;;
27893;SDS011;15240;50.812;4.792;2022-09-01T07:30:45;7.38;;;4.65;;
27893;SDS011;15240;50.812;4.792;2022-09-01T07:33:15;5.57;;;4.38;;
27893;SDS011;15240;50.812;4.792;2022-09-01T07:35:44;6.13;;;4.78;;
27893;SDS011;15240;50.812;4.792;2022-09-01T07:38:10;5.47;;;4.63;;
27893;SDS011;15240;50.812;4.792;2022-09-01T07:40:38;7.03;;;4.53;;
27893;SDS011;15240;50.812;4.792;2022-09-01T07:43:06;6.57;;;4.68;;
27893;SDS011;15240;50.812;4.792;2022-09-01T07:45:36;6.40;;;4.45;;
27893;SDS011;15240;50.812;4.792;2022-09-01T07:48:04;7.32;;;4.30;;
27893;SDS011;15240;50.812;4.792;2022-09-01T07:50:31;7.32;;;4.45;;
27893;SDS011;15240;50.812;4.792;2022-09-01T07:52:58;9.77;;;4.07;;
27893;SDS011;15240;50.812;4.792;2022-09-01T07:55:24;8.35;;;4.47;;
27893;SDS011;15240;50.812;4.792;2022-09-01T07:57:52;6.43;;;4.15;;
27893;SDS011;15240;50.812;4.792;2022-09-01T08:00:19;7.30;;;3.97;;
27893;SDS011;15240;50.812;4.792;2022-09-01T08:02:46;6.47;;;4.40;;
27893;SDS011;15240;50.812;4.792;2022-09-01T08:05:14;6.88;;;4.15;;
27893;SDS011;15240;50.812;4.792;2022-09-01T08:07:46;6.70;;;3.90;;
27893;SDS011;15240;50.812;4.792;2022-09-01T08:10:13;9.85;;;4.30;;
27893;SDS011;15240;50.812;4.792;2022-09-01T08:12:39;6.65;;;3.47;;
27893;SDS011;15240;50.812;4.792;2022-09-01T08:15:07;5.53;;;4.13;;
27893;SDS011;15240;50.812;4.792;2022-09-01T08:17:33;6.88;;;3.90;;
27893;SDS011;15240;50.812;4.792;2022-09-01T08:19:59;7.78;;;3.80;;
27893;SDS011;15240;50.812;4.792;2022-09-01T08:22:25;9.00;;;3.70;;
27893;SDS011;15240;50.812;4.792;2022-09-01T08:24:51;4.22;;;3.67;;
27893;SDS011;15240;50.812;4.792;2022-09-01T08:27:17;5.25;;;3.60;;
27893;SDS011;15240;50.812;4.792;2022-09-01T08:29:43;6.22;;;3.45;;
27893;SDS011;15240;50.812;4.792;2022-09-01T08:32:10;5.10;;;3.30;;
27893;SDS011;15240;50.812;4.792;2022-09-01T08:34:36;6.63;;;3.30;;
27893;SDS011;15240;50.812;4.792;2022-09-01T08:37:03;4.53;;;3.20;;
27893;SDS011;15240;50.812;4.792;2022-09-01T08:39:29;5.32;;;3.50;;
27893;SDS011;15240;50.812;4.792;2022-09-01T08:47:08;5.15;;;2.88;;
27893;SDS011;15240;50.812;4.792;2022-09-01T08:49:34;5.38;;;3.20;;
27893;SDS011;15240;50.812;4.792;2022-09-01T08:54:36;5.80;;;3.00;;
27893;SDS011;15240;50.812;4.792;2022-09-01T08:57:06;4.60;;;3.20;;
27893;SDS011;15240;50.812;4.792;2022-09-01T08:59:33;4.68;;;3.40;;
27893;SDS011;15240;50.812;4.792;2022-09-01T09:12:52;5.28;;;2.92;;
27893;SDS011;15240;50.812;4.792;2022-09-01T09:15:37;5.63;;;3.38;;
27893;SDS011;15240;50.812;4.792;2022-09-01T09:18:31;7.18;;;3.63;;
27893;SDS011;15240;50.812;4.792;2022-09-01T09:21:17;4.90;;;2.92;;
27893;SDS011;15240;50.812;4.792;2022-09-01T09:23:45;7.93;;;2.97;;
27893;SDS011;15240;50.812;4.792;2022-09-01T09:26:12;3.67;;;2.78;;
27893;SDS011;15240;50.812;4.792;2022-09-01T09:28:39;4.50;;;2.65;;
27893;SDS011;15240;50.812;4.792;2022-09-01T09:33:50;9.23;;;2.70;;
27893;SDS011;15240;50.812;4.792;2022-09-01T09:36:17;7.80;;;3.85;;
27893;SDS011;15240;50.812;4.792;2022-09-01T09:38:44;3.88;;;2.85;;
27893;SDS011;15240;50.812;4.792;2022-09-01T09:41:15;4.60;;;4.20;;
27893;SDS011;15240;50.812;4.792;2022-09-01T09:43:42;7.88;;;2.00;;
27893;SDS011;15240;50.812;4.792;2022-09-01T09:51:46;3.40;;;2.50;;
27893;SDS011;15240;50.812;4.792;2022-09-01T09:56:39;6.30;;;1.83;;
27893;SDS011;15240;50.812;4.792;2022-09-01T09:59:22;4.00;;;1.90;;
27893;SDS011;15240;50.812;4.792;2022-09-01T10:01:48;4.55;;;3.92;;
27893;SDS011;15240;50.812;4.792;2022-09-01T10:04:29;4.63;;;2.17;;
27893;SDS011;15240;50.812;4.792;2022-09-01T10:06:56;3.80;;;2.15;;
27893;SDS011;15240;50.812;4.792;2022-09-01T10:11:50;3.35;;;1.90;;
27893;SDS011;15240;50.812;4.792;2022-09-01T10:16:43;7.85;;;5.38;;
27893;SDS011;15240;50.812;4.792;2022-09-01T10:19:10;4.78;;;2.95;;
27893;SDS011;15240;50.812;4.792;2022-09-01T10:21:37;4.50;;;3.58;;
27893;SDS011;15240;50.812;4.792;2022-09-01T10:26:39;3.58;;;2.17;;
27893;SDS011;15240;50.812;4.792;2022-09-01T10:29:17;3.83;;;2.10;;
27893;SDS011;15240;50.812;4.792;2022-09-01T10:31:44;3.70;;;1.90;;
27893;SDS011;15240;50.812;4.792;2022-09-01T10:34:12;8.02;;;2.70;;
27893;SDS011;15240;50.812;4.792;2022-09-01T10:36:40;2.50;;;1.95;;
27893;SDS011;15240;50.812;4.792;2022-09-01T10:39:10;3.53;;;2.20;;
27893;SDS011;15240;50.812;4.792;2022-09-01T10:41:58;4.72;;;2.28;;
27893;SDS011;15240;50.812;4.792;2022-09-01T10:45:17;6.05;;;2.40;;
27893;SDS011;15240;50.812;4.792;2022-09-01T10:47:27;2.28;;;1.73;;
27893;SDS011;15240;50.812;4.792;2022-09-01T10:55:25;8.75;;;2.40;;
27893;SDS011;15240;50.812;4.792;2022-09-01T10:57:59;5.40;;;1.92;;
27893;SDS011;15240;50.812;4.792;2022-09-01T11:08:23;5.05;;;2.53;;
27893;SDS011;15240;50.812;4.792;2022-09-01T11:11:15;3.53;;;1.83;;
27893;SDS011;15240;50.812;4.792;2022-09-01T11:13:49;7.03;;;4.07;;
27893;SDS011;15240;50.812;4.792;2022-09-01T11:18:54;2.97;;;1.75;;
27893;SDS011;15240;50.812;4.792;2022-09-01T11:23:49;5.30;;;2.00;;
27893;SDS011;15240;50.812;4.792;2022-09-01T11:28:56;2.90;;;2.00;;
27893;SDS011;15240;50.812;4.792;2022-09-01T11:31:37;3.22;;;1.70;;
27893;SDS011;15240;50.812;4.792;2022-09-01T11:34:12;3.70;;;1.90;;
27893;SDS011;15240;50.812;4.792;2022-09-01T11:47:05;6.50;;;2.25;;
27893;SDS011;15240;50.812;4.792;2022-09-01T11:49:36;3.33;;;2.15;;
27893;SDS011;15240;50.812;4.792;2022-09-01T11:52:02;3.30;;;2.08;;
27893;SDS011;15240;50.812;4.792;2022-09-01T11:54:35;7.40;;;2.30;;
27893;SDS011;15240;50.812;4.792;2022-09-01T11:59:47;3.78;;;2.10;;
27893;SDS011;15240;50.812;4.792;2022-09-01T12:02:20;3.88;;;2.00;;
27893;SDS011;15240;50.812;4.792;2022-09-01T12:04:49;4.90;;;1.80;;
27893;SDS011;15240;50.812;4.792;2022-09-01T12:09:53;4.75;;;1.90;;
27893;SDS011;15240;50.812;4.792;2022-09-01T12:12:30;3.60;;;1.98;;
27893;SDS011;15240;50.812;4.792;2022-09-01T12:15:05;4.18;;;2.10;;
27893;SDS011;15240;50.812;4.792;2022-09-01T12:17:31;3.17;;;2.72;;
27893;SDS011;15240;50.812;4.792;2022-09-01T12:20:17;6.68;;;2.38;;
27893;SDS011;15240;50.812;4.792;2022-09-01T12:22:43;4.07;;;2.60;;
27893;SDS011;15240;50.812;4.792;2022-09-01T12:25:17;4.90;;;2.65;;
27893;SDS011;15240;50.812;4.792;2022-09-01T12:27:44;3.88;;;2.10;;
27893;SDS011;15240;50.812;4.792;2022-09-01T12:30:10;4.88;;;2.15;;
27893;SDS011;15240;50.812;4.792;2022-09-01T12:32:36;7.15;;;2.40;;
27893;SDS011;15240;50.812;4.792;2022-09-01T12:35:03;6.82;;;2.22;;
27893;SDS011;15240;50.812;4.792;2022-09-01T12:37:38;2.58;;;2.10;;
27893;SDS011;15240;50.812;4.792;2022-09-01T12:40:04;2.63;;;1.98;;
27893;SDS011;15240;50.812;4.792;2022-09-01T12:42:31;4.10;;;2.00;;
27893;SDS011;15240;50.812;4.792;2022-09-01T12:44:59;4.57;;;2.60;;
27893;SDS011;15240;50.812;4.792;2022-09-01T12:50:03;4.53;;;2.40;;
27893;SDS011;15240;50.812;4.792;2022-09-01T12:52:31;6.22;;;1.92;;
27893;SDS011;15240;50.812;4.792;2022-09-01T13:02:33;6.07;;;2.33;;
27893;SDS011;15240;50.812;4.792;2022-09-01T13:05:19;4.13;;;2.13;;
27893;SDS011;15240;50.812;4.792;2022-09-01T13:07:46;3.90;;;1.73;;
27893;SDS011;15240;50.812;4.792;2022-09-01T13:10:12;3.22;;;1.92;;
27893;SDS011;15240;50.812;4.792;2022-09-01T13:12:39;4.00;;;1.60;;
27893;SDS011;15240;50.812;4.792;2022-09-01T13:15:06;3.42;;;1.98;;
27893;SDS011;15240;50.812;4.792;2022-09-01T13:17:32;4.55;;;2.08;;
27893;SDS011;15240;50.812;4.792;2022-09-01T13:19:58;2.67;;;1.67;;
27893;SDS011;15240;50.812;4.792;2022-09-01T13:22:24;2.63;;;1.90;;
27893;SDS011;15240;50.812;4.792;2022-09-01T13:24:50;4.90;;;1.90;;
27893;SDS011;15240;50.812;4.792;2022-09-01T13:27:16;5.47;;;2.45;;
27893;SDS011;15240;50.812;4.792;2022-09-01T13:29:42;3.15;;;1.63;;
27893;SDS011;15240;50.812;4.792;2022-09-01T13:35:14;4.32;;;1.58;;
27893;SDS011;15240;50.812;4.792;2022-09-01T13:37:40;8.00;;;1.73;;
27893;SDS011;15240;50.812;4.792;2022-09-01T13:40:07;1.90;;;1.60;;
27893;SDS011;15240;50.812;4.792;2022-09-01T13:42:39;4.18;;;1.90;;
27893;SDS011;15240;50.812;4.792;2022-09-01T13:45:05;3.58;;;1.70;;
27893;SDS011;15240;50.812;4.792;2022-09-01T13:47:31;2.65;;;1.30;;
27893;SDS011;15240;50.812;4.792;2022-09-01T13:49:58;3.53;;;1.95;;
27893;SDS011;15240;50.812;4.792;2022-09-01T13:52:24;4.03;;;1.60;;
27893;SDS011;15240;50.812;4.792;2022-09-01T13:54:50;2.67;;;1.77;;
27893;SDS011;15240;50.812;4.792;2022-09-01T13:57:16;3.08;;;1.70;;
27893;SDS011;15240;50.812;4.792;2022-09-01T13:59:43;5.00;;;1.58;;
27893;SDS011;15240;50.812;4.792;2022-09-01T14:02:09;2.50;;;1.40;;
27893;SDS011;15240;50.812;4.792;2022-09-01T14:04:36;2.20;;;1.50;;
27893;SDS011;15240;50.812;4.792;2022-09-01T14:07:02;3.40;;;1.70;;
27893;SDS011;15240;50.812;4.792;2022-09-01T14:09:28;5.10;;;1.55;;
27893;SDS011;15240;50.812;4.792;2022-09-01T14:11:54;2.00;;;1.67;;
27893;SDS011;15240;50.812;4.792;2022-09-01T14:14:21;2.38;;;1.60;;
27893;SDS011;15240;50.812;4.792;2022-09-01T14:16:47;4.35;;;1.98;;
27893;SDS011;15240;50.812;4.792;2022-09-01T14:19:13;3.70;;;1.52;;
27893;SDS011;15240;50.812;4.792;2022-09-01T14:21:39;4.15;;;1.50;;
27893;SDS011;15240;50.812;4.792;2022-09-01T14:24:05;1.83;;;1.55;;
27893;SDS011;15240;50.812;4.792;2022-09-01T14:26:32;5.15;;;1.63;;
27893;SDS011;15240;50.812;4.792;2022-09-01T14:28:58;2.80;;;1.55;;
27893;SDS011;15240;50.812;4.792;2022-09-01T14:31:26;3.05;;;1.60;;
27893;SDS011;15240;50.812;4.792;2022-09-01T14:33:53;5.20;;;1.60;;
27893;SDS011;15240;50.812;4.792;2022-09-01T14:36:21;2.55;;;1.60;;
27893;SDS011;15240;50.812;4.792;2022-09-01T14:38:47;2.30;;;1.40;;
27893;SDS011;15240;50.812;4.792;2022-09-01T14:41:14;2.53;;;1.55;;
27893;SDS011;15240;50.812;4.792;2022-09-01T14:43:40;4.05;;;1.80;;
27893;SDS011;15240;50.812;4.792;2022-09-01T14:46:07;2.00;;;1.40;;
27893;SDS011;15240;50.812;4.792;2022-09-01T14:48:35;4.82;;;1.50;;
27893;SDS011;15240;50.812;4.792;2022-09-01T14:51:01;5.75;;;1.80;;
27893;SDS011;15240;50.812;4.792;2022-09-01T14:53:27;3.92;;;1.75;;
27893;SDS011;15240;50.812;4.792;2022-09-01T14:55:54;4.68;;;1.67;;
27893;SDS011;15240;50.812;4.792;2022-09-01T14:58:21;5.32;;;1.40;;
27893;SDS011;15240;50.812;4.792;2022-09-01T15:00:47;4.10;;;1.52;;
27893;SDS011;15240;50.812;4.792;2022-09-01T15:03:13;3.35;;;1.40;;
27893;SDS011;15240;50.812;4.792;2022-09-01T15:05:39;4.80;;;1.60;;
27893;SDS011;15240;50.812;4.792;2022-09-01T15:08:06;5.13;;;1.60;;
27893;SDS011;15240;50.812;4.792;2022-09-01T15:10:32;3.85;;;1.60;;
27893;SDS011;15240;50.812;4.792;2022-09-01T15:12:59;2.67;;;1.60;;
27893;SDS011;15240;50.812;4.792;2022-09-01T15:15:25;6.05;;;1.50;;
27893;SDS011;15240;50.812;4.792;2022-09-01T15:17:52;2.72;;;1.52;;
27893;SDS011;15240;50.812;4.792;2022-09-01T15:20:18;2.58;;;1.50;;
27893;SDS011;15240;50.812;4.792;2022-09-01T15:23:02;4.03;;;1.60;;
27893;SDS011;15240;50.812;4.792;2022-09-01T15:25:29;1.95;;;1.30;;
27893;SDS011;15240;50.812;4.792;2022-09-01T15:27:55;2.92;;;1.45;;
27893;SDS011;15240;50.812;4.792;2022-09-01T15:30:21;4.30;;;1.45;;
27893;SDS011;15240;50.812;4.792;2022-09-01T15:32:48;3.28;;;1.63;;
27893;SDS011;15240;50.812;4.792;2022-09-01T15:35:15;2.50;;;1.38;;
27893;SDS011;15240;50.812;4.792;2022-09-01T15:37:41;2.65;;;1.30;;
27893;SDS011;15240;50.812;4.792;2022-09-01T15:40:08;2.90;;;1.50;;
27893;SDS011;15240;50.812;4.792;2022-09-01T15:42:34;3.97;;;1.65;;
27893;SDS011;15240;50.812;4.792;2022-09-01T15:45:03;3.60;;;1.45;;
27893;SDS011;15240;50.812;4.792;2022-09-01T15:47:30;2.08;;;1.40;;
27893;SDS011;15240;50.812;4.792;2022-09-01T15:49:56;2.80;;;1.80;;
27893;SDS011;15240;50.812;4.792;2022-09-01T15:52:22;3.85;;;1.80;;
27893;SDS011;15240;50.812;4.792;2022-09-01T15:54:48;3.60;;;1.50;;
27893;SDS011;15240;50.812;4.792;2022-09-01T15:57:14;3.95;;;1.75;;
27893;SDS011;15240;50.812;4.792;2022-09-01T15:59:40;4.50;;;1.80;;
27893;SDS011;15240;50.812;4.792;2022-09-01T16:02:07;4.18;;;2.00;;
27893;SDS011;15240;50.812;4.792;2022-09-01T16:04:34;4.45;;;1.50;;
27893;SDS011;15240;50.812;4.792;2022-09-01T16:07:00;2.08;;;1.40;;
27893;SDS011;15240;50.812;4.792;2022-09-01T16:09:26;3.90;;;1.75;;
27893;SDS011;15240;50.812;4.792;2022-09-01T16:11:53;2.35;;;1.58;;
27893;SDS011;15240;50.812;4.792;2022-09-01T16:14:19;3.53;;;1.58;;
27893;SDS011;15240;50.812;4.792;2022-09-01T16:19:36;4.47;;;2.05;;
27893;SDS011;15240;50.812;4.792;2022-09-01T16:24:40;4.35;;;1.90;;
27893;SDS011;15240;50.812;4.792;2022-09-01T16:27:07;2.95;;;1.80;;
27893;SDS011;15240;50.812;4.792;2022-09-01T16:29:56;2.88;;;1.48;;